createdAt,value
2022-09-12T00:01:25.876Z,10.24
2022-09-12T00:03:56.143Z,10.20
2022-09-12T00:06:33.446Z,10.18
2022-09-12T00:09:04.895Z,10.15
2022-09-12T00:11:35.017Z,10.15
2022-09-12T00:14:03.636Z,10.12
2022-09-12T00:16:34.442Z,10.11
2022-09-12T00:19:03.629Z,10.09
2022-09-12T00:21:34.268Z,10.04
2022-09-12T00:24:02.535Z,10.00
2022-09-12T00:26:30.910Z,9.97
2022-09-12T00:28:58.782Z,9.96
2022-09-12T00:31:27.453Z,9.95
2022-09-12T00:34:00.962Z,9.93
2022-09-12T00:36:30.619Z,9.92
2022-09-12T00:38:59.000Z,9.90
2022-09-12T00:41:38.790Z,9.88
2022-09-12T00:44:26.699Z,9.85
2022-09-12T00:47:10.876Z,9.84
2022-09-12T00:50:03.523Z,9.83
2022-09-12T00:52:41.627Z,9.79
2022-09-12T00:55:18.707Z,9.77
2022-09-12T00:57:51.891Z,9.76
2022-09-12T01:00:23.461Z,9.76
2022-09-12T01:02:56.816Z,9.74
2022-09-12T01:05:26.660Z,9.73
2022-09-12T01:07:57.080Z,9.73
2022-09-12T01:10:25.160Z,9.72
2022-09-12T01:12:53.221Z,9.71
2022-09-12T01:15:21.091Z,9.72
2022-09-12T01:18:12.833Z,9.73
2022-09-12T01:20:50.611Z,9.74
2022-09-12T01:23:48.633Z,9.74
2022-09-12T01:26:38.059Z,9.76
2022-09-12T01:29:41.901Z,9.76
2022-09-12T01:32:32.565Z,9.77
2022-09-12T01:35:34.226Z,9.80
2022-09-12T01:38:17.653Z,9.81
2022-09-12T01:40:56.269Z,9.82
2022-09-12T01:43:35.501Z,9.85
2022-09-12T01:46:18.009Z,9.88
2022-09-12T01:49:00.419Z,9.90
2022-09-12T01:51:33.922Z,9.93
2022-09-12T01:54:12.804Z,9.93
2022-09-12T01:56:44.089Z,9.93
2022-09-12T01:59:22.089Z,9.94
2022-09-12T02:02:03.098Z,9.97
2022-09-12T02:04:48.965Z,9.94
2022-09-12T02:07:27.569Z,9.94
2022-09-12T02:10:04.378Z,9.92
2022-09-12T02:12:49.925Z,9.92
2022-09-12T02:15:21.172Z,9.92
2022-09-12T02:17:52.821Z,9.91
2022-09-12T02:20:44.419Z,9.91
2022-09-12T02:23:23.677Z,9.89
2022-09-12T02:25:57.679Z,9.89
2022-09-12T02:28:31.490Z,9.91
2022-09-12T02:31:14.514Z,9.91
2022-09-12T02:34:08.797Z,9.85
2022-09-12T02:36:55.913Z,9.82
2022-09-12T02:39:24.906Z,9.80
2022-09-12T02:41:57.313Z,9.78
2022-09-12T02:44:27.290Z,9.76
2022-09-12T02:47:05.705Z,9.75
2022-09-12T02:49:33.876Z,9.74
2022-09-12T02:52:02.513Z,9.75
2022-09-12T02:54:31.222Z,9.75
2022-09-12T02:56:59.063Z,9.77
2022-09-12T02:59:27.461Z,9.77
2022-09-12T03:02:01.090Z,9.78
2022-09-12T03:04:58.241Z,9.77
2022-09-12T03:07:41.365Z,9.75
2022-09-12T03:10:24.589Z,9.75
2022-09-12T03:13:11.022Z,9.74
2022-09-12T03:16:23.456Z,9.75
2022-09-12T03:19:09.215Z,9.72
2022-09-12T03:21:54.966Z,9.72
2022-09-12T03:24:48.441Z,9.71
2022-09-12T03:27:21.498Z,9.69
2022-09-12T03:29:51.085Z,9.68
2022-09-12T03:32:19.006Z,9.70
2022-09-12T03:34:46.865Z,9.70
2022-09-12T03:37:14.845Z,9.70
2022-09-12T03:39:42.663Z,9.73
2022-09-12T03:42:10.667Z,9.75
2022-09-12T03:44:38.530Z,9.75
2022-09-12T03:47:11.027Z,9.76
2022-09-12T03:49:39.206Z,9.77
2022-09-12T03:52:07.247Z,9.77
2022-09-12T03:54:35.011Z,9.78
2022-09-12T03:57:02.875Z,9.75
2022-09-12T03:59:31.255Z,9.72
2022-09-12T04:01:59.279Z,9.70
2022-09-12T04:04:27.290Z,9.70
2022-09-12T04:06:55.379Z,9.72
2022-09-12T04:09:23.674Z,9.72
2022-09-12T04:11:51.607Z,9.72
2022-09-12T04:14:19.474Z,9.74
2022-09-12T04:16:47.291Z,9.73
2022-09-12T04:19:15.281Z,9.75
2022-09-12T04:21:43.179Z,9.76
2022-09-12T04:24:10.947Z,9.78
2022-09-12T04:26:38.702Z,9.80
2022-09-12T04:29:06.562Z,9.79
2022-09-12T04:31:34.326Z,9.81
2022-09-12T04:34:02.807Z,9.81
2022-09-12T04:36:31.222Z,9.81
2022-09-12T04:39:00.482Z,9.80
2022-09-12T04:41:31.478Z,9.78
2022-09-12T04:44:02.568Z,9.78
2022-09-12T04:46:32.886Z,9.77
2022-09-12T04:49:00.830Z,9.76
2022-09-12T04:51:31.726Z,9.75
2022-09-12T04:54:02.735Z,9.75
2022-09-12T04:56:31.386Z,9.76
2022-09-12T04:59:01.228Z,9.78
2022-09-12T05:01:30.448Z,9.79
2022-09-12T05:04:00.234Z,9.81
2022-09-12T05:06:30.876Z,9.83
2022-09-12T05:08:59.968Z,9.84
2022-09-12T05:11:59.781Z,9.85
2022-09-12T05:14:19.127Z,9.86
2022-09-12T05:16:49.366Z,9.86
2022-09-12T05:19:17.659Z,9.88
2022-09-12T05:21:45.706Z,9.89
2022-09-12T05:24:13.479Z,9.92
2022-09-12T05:26:41.335Z,9.93
2022-09-12T05:29:09.200Z,9.96
2022-09-12T05:31:37.883Z,9.99
2022-09-12T05:34:07.288Z,10.01
2022-09-12T05:36:35.254Z,10.03
2022-09-12T05:39:04.338Z,10.05
2022-09-12T05:41:34.130Z,10.06
2022-09-12T05:44:04.531Z,10.07
2022-09-12T05:46:40.397Z,10.08
2022-09-12T05:49:10.350Z,10.10
2022-09-12T05:51:41.616Z,10.11
2022-09-12T05:54:12.332Z,10.12
2022-09-12T05:56:43.235Z,10.14
2022-09-12T05:59:17.687Z,10.15
2022-09-12T06:01:45.921Z,10.16
2022-09-12T06:04:14.135Z,10.17
2022-09-12T06:06:47.000Z,10.20
2022-09-12T06:09:16.634Z,10.23
2022-09-12T06:11:45.827Z,10.26
2022-09-12T06:14:17.745Z,10.28
2022-09-12T06:16:47.254Z,10.31
2022-09-12T06:19:18.223Z,10.34
2022-09-12T06:21:48.554Z,10.38
2022-09-12T06:24:17.881Z,10.39
2022-09-12T06:26:47.843Z,10.41
2022-09-12T06:29:16.338Z,10.44
2022-09-12T06:31:44.833Z,10.46
2022-09-12T06:34:15.146Z,10.46
2022-09-12T06:36:48.371Z,10.49
2022-09-12T06:39:23.445Z,10.52
2022-09-12T06:41:52.957Z,10.51
2022-09-12T06:44:22.663Z,10.52
2022-09-12T06:46:50.856Z,10.55
2022-09-12T06:49:19.026Z,10.54
2022-09-12T06:51:47.107Z,10.56
2022-09-12T06:54:16.925Z,10.57
2022-09-12T06:56:45.227Z,10.57
2022-09-12T06:59:13.152Z,10.57
2022-09-12T07:01:42.088Z,10.58
2022-09-12T07:04:10.536Z,10.59
2022-09-12T07:06:41.393Z,10.60
2022-09-12T07:09:13.113Z,10.62
2022-09-12T07:11:42.465Z,10.62
2022-09-12T07:14:14.107Z,10.64
2022-09-12T07:16:42.395Z,10.66
2022-09-12T07:19:10.930Z,10.71
2022-09-12T07:21:41.786Z,10.74
2022-09-12T07:24:11.107Z,10.76
2022-09-12T07:26:42.496Z,10.76
2022-09-12T07:29:35.904Z,10.79
2022-09-12T07:32:05.675Z,10.82
2022-09-12T07:34:34.481Z,10.84
2022-09-12T07:37:02.542Z,10.87
2022-09-12T07:39:30.321Z,10.89
2022-09-12T07:41:58.888Z,10.94
2022-09-12T07:44:28.289Z,11.00
2022-09-12T07:46:56.079Z,11.00
2022-09-12T07:49:24.332Z,11.00
2022-09-12T07:51:52.093Z,10.99
2022-09-12T07:54:20.443Z,11.00
2022-09-12T07:56:48.338Z,11.04
2022-09-12T07:59:29.988Z,11.09
2022-09-12T08:02:04.201Z,11.12
2022-09-12T08:04:32.122Z,11.14
2022-09-12T08:06:59.968Z,11.17
2022-09-12T08:09:27.732Z,11.21
2022-09-12T08:11:55.495Z,11.22
2022-09-12T08:14:23.462Z,11.25
2022-09-12T08:16:51.332Z,11.29
2022-09-12T08:19:19.765Z,11.35
2022-09-12T08:21:47.500Z,11.40
2022-09-12T08:24:16.051Z,11.44
2022-09-12T08:26:43.935Z,11.48
2022-09-12T08:29:12.243Z,11.51
2022-09-12T08:31:41.593Z,11.55
2022-09-12T08:34:10.085Z,11.58
2022-09-12T08:36:37.939Z,11.62
2022-09-12T08:39:07.861Z,11.65
2022-09-12T08:41:47.906Z,11.69
2022-09-12T08:44:21.786Z,11.75
2022-09-12T08:46:49.572Z,11.81
2022-09-12T08:49:29.123Z,11.87
2022-09-12T08:52:00.872Z,11.94
2022-09-12T08:54:30.870Z,12.01
2022-09-12T08:57:04.001Z,12.08
2022-09-12T08:59:39.913Z,12.14
2022-09-12T09:02:46.199Z,12.19
2022-09-12T09:05:43.550Z,12.26
2022-09-12T09:08:40.199Z,12.33
2022-09-12T09:11:29.161Z,12.37
2022-09-12T09:14:50.576Z,12.39
2022-09-12T09:17:40.286Z,12.44
2022-09-12T09:20:43.854Z,12.50
2022-09-12T09:23:31.074Z,12.53
2022-09-12T09:26:27.481Z,12.56
2022-09-12T09:29:11.146Z,12.60
2022-09-12T09:31:40.542Z,12.64
2022-09-12T09:34:22.135Z,12.69
2022-09-12T09:36:57.346Z,12.72
2022-09-12T09:40:27.799Z,12.75
2022-09-12T09:43:12.263Z,12.77
2022-09-12T09:45:44.548Z,12.81
2022-09-12T09:48:29.443Z,12.85
2022-09-12T09:51:00.487Z,12.87
2022-09-12T09:53:56.770Z,12.89
2022-09-12T09:56:27.390Z,12.93
2022-09-12T09:58:55.685Z,12.92
2022-09-12T10:01:24.821Z,12.97
2022-09-12T10:03:56.730Z,13.01
2022-09-12T10:06:37.099Z,13.03
2022-09-12T10:09:16.526Z,13.05
2022-09-12T10:11:46.017Z,13.08
2022-09-12T10:14:28.217Z,13.11
2022-09-12T10:16:56.804Z,13.14
2022-09-12T10:19:40.482Z,13.16
2022-09-12T10:22:18.237Z,13.19
2022-09-12T10:24:52.511Z,13.21
2022-09-12T10:27:31.377Z,13.24
2022-09-12T10:30:20.398Z,13.26
2022-09-12T10:32:53.177Z,13.29
2022-09-12T10:35:28.669Z,13.30
2022-09-12T10:38:06.873Z,13.34
2022-09-12T10:40:43.381Z,13.33
2022-09-12T10:43:34.529Z,13.38
2022-09-12T10:46:15.851Z,13.41
2022-09-12T10:48:49.338Z,13.43
2022-09-12T10:51:26.021Z,13.46
2022-09-12T10:53:57.760Z,13.50
2022-09-12T10:56:32.893Z,13.51
2022-09-12T10:59:21.857Z,13.55
2022-09-12T11:01:57.477Z,13.57
2022-09-12T11:04:43.905Z,13.60
2022-09-12T11:07:41.056Z,13.63
2022-09-12T11:10:27.464Z,13.65
2022-09-12T11:13:25.837Z,13.67
2022-09-12T11:16:08.679Z,13.70
2022-09-12T11:19:04.040Z,13.73
2022-09-12T11:21:34.697Z,13.74
2022-09-12T11:24:23.477Z,13.75
2022-09-12T11:27:20.599Z,13.77
2022-09-12T11:30:11.449Z,13.78
2022-09-12T11:33:08.964Z,13.81
2022-09-12T11:35:53.061Z,13.81
2022-09-12T11:38:47.842Z,13.85
2022-09-12T11:41:27.039Z,13.89
2022-09-12T11:44:03.799Z,13.91
2022-09-12T11:46:40.093Z,13.93
2022-09-12T11:49:14.970Z,13.94
2022-09-12T11:52:04.172Z,13.96
2022-09-12T11:54:52.840Z,13.95
2022-09-12T11:57:40.759Z,13.96
2022-09-12T12:00:19.623Z,13.98
2022-09-12T12:02:59.634Z,13.98
2022-09-12T12:05:52.157Z,13.99
2022-09-12T12:08:23.532Z,14.03
2022-09-12T12:11:00.709Z,14.06
2022-09-12T12:13:45.986Z,14.10
2022-09-12T12:16:34.944Z,14.13
2022-09-12T12:19:10.736Z,14.15
2022-09-12T12:21:40.767Z,14.17
2022-09-12T12:24:08.678Z,14.18
2022-09-12T12:26:40.026Z,14.20
2022-09-12T12:29:13.829Z,14.24
2022-09-12T12:32:00.331Z,14.29
2022-09-12T12:34:42.124Z,14.34
2022-09-12T12:37:19.307Z,14.38
2022-09-12T12:39:48.448Z,14.43
2022-09-12T12:42:35.249Z,14.46
2022-09-12T12:45:26.735Z,14.48
2022-09-12T12:48:00.349Z,14.51
2022-09-12T12:50:32.295Z,14.53
2022-09-12T12:53:03.748Z,14.55
2022-09-12T12:55:57.833Z,14.57
2022-09-12T12:58:28.968Z,14.57
2022-09-12T13:01:15.008Z,14.55
2022-09-12T13:04:05.575Z,14.55
2022-09-12T13:06:33.325Z,14.57
2022-09-12T13:09:19.415Z,14.58
2022-09-12T13:11:47.552Z,14.63
2022-09-12T13:14:35.639Z,14.67
2022-09-12T13:17:08.646Z,14.74
2022-09-12T13:19:38.238Z,14.81
2022-09-12T13:22:10.526Z,14.84
2022-09-12T13:24:48.997Z,14.90
2022-09-12T13:27:26.312Z,14.93
2022-09-12T13:30:09.831Z,14.96
2022-09-12T13:32:37.786Z,14.99
2022-09-12T13:35:28.691Z,15.00
2022-09-12T13:38:20.736Z,15.00
2022-09-12T13:41:22.484Z,15.02
2022-09-12T13:43:50.553Z,15.03
2022-09-12T13:46:28.429Z,15.04
2022-09-12T13:48:58.981Z,15.04
2022-09-12T13:51:30.535Z,15.05
2022-09-12T13:54:03.277Z,15.05
2022-09-12T13:56:31.323Z,15.05
2022-09-12T13:59:01.816Z,15.04
2022-09-12T14:01:40.499Z,15.03
2022-09-12T14:04:40.549Z,15.04
2022-09-12T14:07:21.215Z,15.05
2022-09-12T14:09:58.053Z,15.04
2022-09-12T14:12:28.723Z,15.04
2022-09-12T14:14:57.415Z,15.07
2022-09-12T14:17:32.996Z,15.09
2022-09-12T14:20:09.504Z,15.15
2022-09-12T14:22:38.933Z,15.20
2022-09-12T14:25:14.038Z,15.26
2022-09-12T14:27:47.981Z,15.32
2022-09-12T14:30:27.918Z,15.37
2022-09-12T14:33:11.148Z,15.44
2022-09-12T14:35:43.616Z,15.57
2022-09-12T14:38:17.733Z,15.61
2022-09-12T14:40:53.191Z,15.65
2022-09-12T14:43:23.593Z,15.65
2022-09-12T14:46:01.199Z,15.61
2022-09-12T14:48:34.331Z,15.62
2022-09-12T14:51:02.861Z,15.62
2022-09-12T14:53:32.770Z,15.62
2022-09-12T14:56:14.331Z,15.62
2022-09-12T14:58:42.623Z,15.60
2022-09-12T15:01:13.319Z,15.58
2022-09-12T15:03:49.997Z,15.55
2022-09-12T15:06:32.657Z,15.52
2022-09-12T15:09:06.958Z,15.49
2022-09-12T15:11:34.942Z,15.45
2022-09-12T15:14:29.038Z,15.40
2022-09-12T15:16:56.789Z,15.35
2022-09-12T15:19:24.647Z,15.32
2022-09-12T15:21:53.181Z,15.28
2022-09-12T15:24:21.016Z,15.23
2022-09-12T15:26:49.079Z,15.20
2022-09-12T15:29:16.826Z,15.16
2022-09-12T15:31:47.562Z,15.13
2022-09-12T15:34:15.628Z,15.06
2022-09-12T15:36:43.500Z,15.01
2022-09-12T15:39:12.179Z,14.97
2022-09-12T15:41:40.799Z,14.91
2022-09-12T15:44:12.825Z,14.86
2022-09-12T15:46:41.121Z,14.82
2022-09-12T15:49:09.124Z,14.78
2022-09-12T15:51:37.346Z,14.75
2022-09-12T15:54:05.520Z,14.70
2022-09-12T15:56:33.385Z,14.65
2022-09-12T15:59:01.352Z,14.61
2022-09-12T16:01:29.624Z,14.58
2022-09-12T16:03:57.933Z,14.54
2022-09-12T16:06:27.302Z,14.47
2022-09-12T16:08:55.483Z,14.39
2022-09-12T16:11:26.033Z,14.33
2022-09-12T16:13:55.303Z,14.31
2022-09-12T16:16:23.164Z,14.28
2022-09-12T16:18:51.035Z,14.24
2022-09-12T16:21:18.903Z,14.20
2022-09-12T16:23:48.123Z,14.18
2022-09-12T16:26:16.682Z,14.16
2022-09-12T16:28:45.006Z,14.14
2022-09-12T16:31:14.393Z,14.11
2022-09-12T16:33:42.426Z,14.10
2022-09-12T16:36:13.059Z,14.07
2022-09-12T16:38:42.578Z,14.04
2022-09-12T16:41:11.301Z,14.00
2022-09-12T16:43:39.914Z,13.97
2022-09-12T16:46:11.884Z,13.94
2022-09-12T16:48:52.602Z,13.93
2022-09-12T16:51:24.015Z,13.92
2022-09-12T16:53:52.515Z,13.90
2022-09-12T16:56:20.976Z,13.86
2022-09-12T16:58:49.015Z,13.84
2022-09-12T17:01:20.435Z,13.82
2022-09-12T17:03:48.945Z,13.80
2022-09-12T17:06:18.573Z,13.79
2022-09-12T17:08:49.383Z,13.79
2022-09-12T17:11:38.368Z,13.75
2022-09-12T17:14:08.386Z,13.72
2022-09-12T17:16:42.393Z,13.71
2022-09-12T17:19:26.797Z,13.71
2022-09-12T17:21:54.919Z,13.69
2022-09-12T17:24:23.298Z,13.68
2022-09-12T17:26:52.132Z,13.67
2022-09-12T17:29:20.406Z,13.64
2022-09-12T17:31:49.014Z,13.61
2022-09-12T17:34:17.982Z,13.56
2022-09-12T17:36:48.401Z,13.54
2022-09-12T17:39:16.333Z,13.55
2022-09-12T17:41:46.159Z,13.53
2022-09-12T17:44:15.239Z,13.50
2022-09-12T17:46:44.478Z,13.48
2022-09-12T17:49:15.073Z,13.46
2022-09-12T17:51:44.067Z,13.43
2022-09-12T17:54:18.474Z,13.40
2022-09-12T17:56:49.117Z,13.37
2022-09-12T17:59:24.598Z,13.35
2022-09-12T18:02:11.110Z,13.36
2022-09-12T18:04:45.964Z,13.34
2022-09-12T18:07:16.226Z,13.32
2022-09-12T18:09:44.730Z,13.30
2022-09-12T18:12:12.545Z,13.29
2022-09-12T18:14:41.168Z,13.28
2022-09-12T18:17:11.392Z,13.27
2022-09-12T18:19:39.420Z,13.27
2022-09-12T18:22:07.595Z,13.25
2022-09-12T18:24:36.025Z,13.23
2022-09-12T18:27:04.859Z,13.20
2022-09-12T18:29:32.827Z,13.19
2022-09-12T18:32:01.006Z,13.20
2022-09-12T18:34:28.972Z,13.20
2022-09-12T18:36:56.936Z,13.20
2022-09-12T18:39:27.745Z,13.18
2022-09-12T18:41:55.913Z,13.18
2022-09-12T18:44:23.671Z,13.18
2022-09-12T18:46:51.600Z,13.18
2022-09-12T18:49:19.335Z,13.17
2022-09-12T18:51:47.272Z,13.18
2022-09-12T18:54:15.579Z,13.17
2022-09-12T18:56:45.549Z,13.15
2022-09-12T18:59:15.082Z,13.14
2022-09-12T19:01:43.941Z,13.14
2022-09-12T19:04:13.287Z,13.14
2022-09-12T19:06:43.814Z,13.12
2022-09-12T19:09:14.460Z,13.09
2022-09-12T19:11:50.447Z,13.07
2022-09-12T19:14:22.593Z,13.05
2022-09-12T19:16:52.249Z,13.04
2022-09-12T19:19:21.130Z,13.02
2022-09-12T19:21:49.249Z,13.01
2022-09-12T19:24:17.361Z,12.98
2022-09-12T19:26:45.647Z,12.98
2022-09-12T19:29:14.884Z,12.97
2022-09-12T19:31:44.178Z,12.96
2022-09-12T19:34:14.809Z,12.93
2022-09-12T19:36:45.363Z,12.91
2022-09-12T19:39:16.374Z,12.89
2022-09-12T19:41:45.191Z,12.88
2022-09-12T19:44:13.759Z,12.85
2022-09-12T19:46:42.084Z,12.83
2022-09-12T19:49:11.550Z,12.81
2022-09-12T19:51:39.606Z,12.79
2022-09-12T19:54:07.970Z,12.78
2022-09-12T19:56:36.083Z,12.79
2022-09-12T19:59:04.461Z,12.79
2022-09-12T20:01:32.815Z,12.78
2022-09-12T20:04:00.666Z,12.76
2022-09-12T20:06:28.841Z,12.74
2022-09-12T20:08:56.707Z,12.72
2022-09-12T20:11:25.907Z,12.67
2022-09-12T20:13:54.084Z,12.62
2022-09-12T20:16:25.762Z,12.59
2022-09-12T20:18:56.459Z,12.54
2022-09-12T20:21:31.757Z,12.52
2022-09-12T20:24:10.523Z,12.49
2022-09-12T20:26:39.762Z,12.45
2022-09-12T20:29:08.812Z,12.40
2022-09-12T20:31:38.822Z,12.33
2022-09-12T20:34:08.234Z,12.25
2022-09-12T20:36:36.299Z,12.22
2022-09-12T20:39:05.151Z,12.16
2022-09-12T20:41:38.181Z,12.13
2022-09-12T20:44:06.351Z,12.08
2022-09-12T20:46:34.415Z,12.01
2022-09-12T20:49:03.119Z,11.97
2022-09-12T20:51:31.131Z,11.92
2022-09-12T20:54:01.294Z,11.86
2022-09-12T20:56:31.726Z,11.83
2022-09-12T20:58:59.792Z,11.78
2022-09-12T21:01:29.912Z,11.74
2022-09-12T21:03:59.925Z,11.71
2022-09-12T21:06:28.105Z,11.67
2022-09-12T21:09:00.791Z,11.64
2022-09-12T21:11:29.158Z,11.61
2022-09-12T21:13:58.246Z,11.56
2022-09-12T21:16:26.449Z,11.52
2022-09-12T21:18:57.304Z,11.47
2022-09-12T21:21:25.938Z,11.45
2022-09-12T21:23:57.265Z,11.41
2022-09-12T21:26:26.363Z,11.37
2022-09-12T21:28:54.572Z,11.31
2022-09-12T21:31:22.441Z,11.25
2022-09-12T21:33:51.203Z,11.20
2022-09-12T21:36:19.072Z,11.14
2022-09-12T21:38:46.935Z,11.09
2022-09-12T21:41:16.582Z,11.01
2022-09-12T21:43:45.251Z,10.92
2022-09-12T21:46:13.571Z,10.84
2022-09-12T21:48:46.082Z,10.79
2022-09-12T21:51:13.958Z,10.74
2022-09-12T21:53:41.958Z,10.70
2022-09-12T21:56:10.297Z,10.64
2022-09-12T21:58:38.590Z,10.58
2022-09-12T22:01:10.744Z,10.50
2022-09-12T22:03:38.943Z,10.42
2022-09-12T22:06:07.397Z,10.36
2022-09-12T22:08:37.553Z,10.31
2022-09-12T22:11:12.976Z,10.26
2022-09-12T22:13:43.489Z,10.21
2022-09-12T22:16:12.119Z,10.15
2022-09-12T22:18:40.032Z,10.09
2022-09-12T22:21:12.611Z,10.03
2022-09-12T22:23:59.262Z,9.96
2022-09-12T22:26:27.679Z,9.90
2022-09-12T22:28:55.918Z,9.86
2022-09-12T22:31:23.807Z,9.81
2022-09-12T22:33:51.723Z,9.77
2022-09-12T22:36:19.555Z,9.72
2022-09-12T22:38:47.568Z,9.66
2022-09-12T22:41:15.886Z,9.59
2022-09-12T22:43:43.673Z,9.51
2022-09-12T22:46:12.804Z,9.47
2022-09-12T22:48:41.590Z,9.42
2022-09-12T22:51:11.159Z,9.39
2022-09-12T22:53:39.225Z,9.35
2022-09-12T22:56:08.024Z,9.30
2022-09-12T22:58:42.124Z,9.25
2022-09-12T23:01:10.782Z,9.23
2022-09-12T23:03:39.091Z,9.21
2022-09-12T23:06:07.830Z,9.18
2022-09-12T23:08:37.178Z,9.11
2022-09-12T23:11:09.542Z,9.05
2022-09-12T23:13:38.839Z,9.00
2022-09-12T23:16:08.239Z,8.97
2022-09-12T23:18:37.029Z,8.94
2022-09-12T23:21:10.480Z,8.90
2022-09-12T23:23:39.312Z,8.84
2022-09-12T23:26:11.183Z,8.81
2022-09-12T23:28:40.578Z,8.79
2022-09-12T23:31:12.097Z,8.74
2022-09-12T23:33:40.502Z,8.70
2022-09-12T23:36:14.326Z,8.66
2022-09-12T23:38:45.232Z,8.65
2022-09-12T23:41:17.822Z,8.61
2022-09-12T23:43:46.220Z,8.57
2022-09-12T23:46:15.604Z,8.53
2022-09-12T23:48:44.563Z,8.48
2022-09-12T23:51:13.978Z,8.43
2022-09-12T23:53:42.068Z,8.37
2022-09-12T23:56:10.137Z,8.34
2022-09-12T23:58:38.144Z,8.33
